sensor_id;sensor_type;location;lat;lon;timestamp;P1;durP1;ratioP1;P2;durP2;ratioP2
34725;SDS011;20951;50.818;4.344;2024-02-23T00:00:41;8.23;;;1.75;;
34725;SDS011;20951;50.818;4.344;2024-02-23T00:03:07;6.95;;;1.60;;
34725;SDS011;20951;50.818;4.344;2024-02-23T00:05:33;5.40;;;1.10;;
34725;SDS011;20951;50.818;4.344;2024-02-23T00:07:59;7.10;;;1.55;;
34725;SDS011;20951;50.818;4.344;2024-02-23T00:10:25;6.72;;;1.40;;
34725;SDS011;20951;50.818;4.344;2024-02-23T00:12:51;6.75;;;1.25;;
34725;SDS011;20951;50.818;4.344;2024-02-23T00:15:17;6.00;;;1.13;;
34725;SDS011;20951;50.818;4.344;2024-02-23T00:17:42;4.47;;;1.27;;
34725;SDS011;20951;50.818;4.344;2024-02-23T00:20:09;7.25;;;0.88;;
34725;SDS011;20951;50.818;4.344;2024-02-23T00:22:37;7.90;;;1.05;;
34725;SDS011;20951;50.818;4.344;2024-02-23T00:25:03;5.38;;;1.30;;
34725;SDS011;20951;50.818;4.344;2024-02-23T00:27:29;7.85;;;1.52;;
34725;SDS011;20951;50.818;4.344;2024-02-23T00:29:55;6.05;;;1.10;;
34725;SDS011;20951;50.818;4.344;2024-02-23T00:32:21;10.30;;;1.60;;
34725;SDS011;20951;50.818;4.344;2024-02-23T00:34:47;6.85;;;1.10;;
34725;SDS011;20951;50.818;4.344;2024-02-23T00:37:13;6.82;;;1.17;;
34725;SDS011;20951;50.818;4.344;2024-02-23T00:39:38;7.15;;;1.15;;
34725;SDS011;20951;50.818;4.344;2024-02-23T00:42:04;3.78;;;1.08;;
34725;SDS011;20951;50.818;4.344;2024-02-23T00:44:30;8.73;;;1.05;;
34725;SDS011;20951;50.818;4.344;2024-02-23T00:46:56;7.55;;;1.08;;
34725;SDS011;20951;50.818;4.344;2024-02-23T00:49:26;5.53;;;1.38;;
34725;SDS011;20951;50.818;4.344;2024-02-23T00:51:53;6.70;;;1.10;;
34725;SDS011;20951;50.818;4.344;2024-02-23T00:54:19;8.50;;;1.30;;
34725;SDS011;20951;50.818;4.344;2024-02-23T00:56:45;4.93;;;1.02;;
34725;SDS011;20951;50.818;4.344;2024-02-23T00:59:10;7.47;;;1.30;;
34725;SDS011;20951;50.818;4.344;2024-02-23T01:01:36;8.25;;;1.17;;
34725;SDS011;20951;50.818;4.344;2024-02-23T01:04:03;11.45;;;1.30;;
34725;SDS011;20951;50.818;4.344;2024-02-23T01:06:28;8.02;;;1.27;;
34725;SDS011;20951;50.818;4.344;2024-02-23T01:08:54;5.30;;;0.90;;
34725;SDS011;20951;50.818;4.344;2024-02-23T01:11:20;6.00;;;1.25;;
34725;SDS011;20951;50.818;4.344;2024-02-23T01:13:46;10.80;;;1.20;;
34725;SDS011;20951;50.818;4.344;2024-02-23T01:16:12;9.57;;;1.35;;
34725;SDS011;20951;50.818;4.344;2024-02-23T01:18:37;5.72;;;0.73;;
34725;SDS011;20951;50.818;4.344;2024-02-23T01:21:03;6.38;;;1.10;;
34725;SDS011;20951;50.818;4.344;2024-02-23T01:23:29;6.53;;;0.90;;
34725;SDS011;20951;50.818;4.344;2024-02-23T01:25:55;6.03;;;1.02;;
34725;SDS011;20951;50.818;4.344;2024-02-23T01:28:22;9.98;;;1.35;;
34725;SDS011;20951;50.818;4.344;2024-02-23T01:30:47;5.53;;;1.17;;
34725;SDS011;20951;50.818;4.344;2024-02-23T01:33:13;5.85;;;0.80;;
34725;SDS011;20951;50.818;4.344;2024-02-23T01:35:39;5.45;;;1.10;;
34725;SDS011;20951;50.818;4.344;2024-02-23T01:38:05;5.90;;;0.95;;
34725;SDS011;20951;50.818;4.344;2024-02-23T01:40:31;6.63;;;1.08;;
34725;SDS011;20951;50.818;4.344;2024-02-23T01:43:03;5.72;;;1.67;;
34725;SDS011;20951;50.818;4.344;2024-02-23T01:45:30;6.55;;;1.15;;
34725;SDS011;20951;50.818;4.344;2024-02-23T01:47:56;5.30;;;1.00;;
34725;SDS011;20951;50.818;4.344;2024-02-23T01:50:23;6.75;;;1.52;;
34725;SDS011;20951;50.818;4.344;2024-02-23T01:52:49;8.68;;;1.50;;
34725;SDS011;20951;50.818;4.344;2024-02-23T01:55:17;7.43;;;1.58;;
34725;SDS011;20951;50.818;4.344;2024-02-23T01:57:45;8.63;;;1.27;;
34725;SDS011;20951;50.818;4.344;2024-02-23T02:00:14;7.38;;;1.15;;
34725;SDS011;20951;50.818;4.344;2024-02-23T02:02:46;8.50;;;1.20;;
34725;SDS011;20951;50.818;4.344;2024-02-23T02:05:13;5.32;;;1.20;;
34725;SDS011;20951;50.818;4.344;2024-02-23T02:07:42;8.40;;;1.58;;
34725;SDS011;20951;50.818;4.344;2024-02-23T02:10:08;7.00;;;1.45;;
34725;SDS011;20951;50.818;4.344;2024-02-23T02:12:34;7.30;;;1.42;;
34725;SDS011;20951;50.818;4.344;2024-02-23T02:15:01;6.75;;;1.20;;
34725;SDS011;20951;50.818;4.344;2024-02-23T02:17:27;10.93;;;1.67;;
34725;SDS011;20951;50.818;4.344;2024-02-23T02:19:53;9.27;;;1.48;;
34725;SDS011;20951;50.818;4.344;2024-02-23T02:22:20;10.00;;;1.63;;
34725;SDS011;20951;50.818;4.344;2024-02-23T02:24:45;10.43;;;1.73;;
34725;SDS011;20951;50.818;4.344;2024-02-23T02:27:13;7.28;;;1.63;;
34725;SDS011;20951;50.818;4.344;2024-02-23T02:29:39;8.60;;;1.67;;
34725;SDS011;20951;50.818;4.344;2024-02-23T02:32:05;8.18;;;1.50;;
34725;SDS011;20951;50.818;4.344;2024-02-23T02:34:32;10.70;;;1.40;;
34725;SDS011;20951;50.818;4.344;2024-02-23T02:36:58;9.38;;;1.63;;
34725;SDS011;20951;50.818;4.344;2024-02-23T02:39:25;9.95;;;1.90;;
34725;SDS011;20951;50.818;4.344;2024-02-23T02:41:52;9.00;;;1.70;;
34725;SDS011;20951;50.818;4.344;2024-02-23T02:44:17;10.85;;;2.13;;
34725;SDS011;20951;50.818;4.344;2024-02-23T02:46:43;11.52;;;2.45;;
34725;SDS011;20951;50.818;4.344;2024-02-23T02:49:11;12.95;;;2.47;;
34725;SDS011;20951;50.818;4.344;2024-02-23T02:51:37;9.70;;;2.28;;
34725;SDS011;20951;50.818;4.344;2024-02-23T02:54:03;8.73;;;2.38;;
34725;SDS011;20951;50.818;4.344;2024-02-23T02:56:29;8.85;;;2.60;;
34725;SDS011;20951;50.818;4.344;2024-02-23T02:58:55;11.32;;;2.67;;
34725;SDS011;20951;50.818;4.344;2024-02-23T03:01:21;13.82;;;2.65;;
34725;SDS011;20951;50.818;4.344;2024-02-23T03:03:47;6.72;;;2.22;;
34725;SDS011;20951;50.818;4.344;2024-02-23T03:06:13;10.45;;;2.80;;
34725;SDS011;20951;50.818;4.344;2024-02-23T03:08:43;10.55;;;2.40;;
34725;SDS011;20951;50.818;4.344;2024-02-23T03:11:09;7.57;;;2.50;;
34725;SDS011;20951;50.818;4.344;2024-02-23T03:13:35;14.05;;;3.00;;
34725;SDS011;20951;50.818;4.344;2024-02-23T03:16:00;9.63;;;2.90;;
34725;SDS011;20951;50.818;4.344;2024-02-23T03:18:26;10.02;;;2.40;;
34725;SDS011;20951;50.818;4.344;2024-02-23T03:20:53;13.85;;;2.97;;
34725;SDS011;20951;50.818;4.344;2024-02-23T03:23:20;10.82;;;3.03;;
34725;SDS011;20951;50.818;4.344;2024-02-23T03:25:46;14.00;;;2.65;;
34725;SDS011;20951;50.818;4.344;2024-02-23T03:28:12;10.23;;;3.03;;
34725;SDS011;20951;50.818;4.344;2024-02-23T03:30:37;9.38;;;2.42;;
34725;SDS011;20951;50.818;4.344;2024-02-23T03:33:03;10.90;;;2.85;;
34725;SDS011;20951;50.818;4.344;2024-02-23T03:35:29;9.27;;;3.15;;
34725;SDS011;20951;50.818;4.344;2024-02-23T03:37:55;10.80;;;3.50;;
34725;SDS011;20951;50.818;4.344;2024-02-23T03:40:21;10.90;;;3.17;;
34725;SDS011;20951;50.818;4.344;2024-02-23T03:42:46;13.25;;;3.47;;
34725;SDS011;20951;50.818;4.344;2024-02-23T03:45:12;10.52;;;3.05;;
34725;SDS011;20951;50.818;4.344;2024-02-23T03:47:38;9.05;;;3.13;;
34725;SDS011;20951;50.818;4.344;2024-02-23T03:50:05;15.10;;;3.83;;
34725;SDS011;20951;50.818;4.344;2024-02-23T03:52:32;11.40;;;3.10;;
34725;SDS011;20951;50.818;4.344;2024-02-23T03:54:58;11.02;;;3.15;;
34725;SDS011;20951;50.818;4.344;2024-02-23T03:57:24;9.82;;;2.65;;
34725;SDS011;20951;50.818;4.344;2024-02-23T03:59:53;14.35;;;3.47;;
34725;SDS011;20951;50.818;4.344;2024-02-23T04:02:19;11.95;;;2.80;;
34725;SDS011;20951;50.818;4.344;2024-02-23T04:04:45;14.02;;;2.92;;
34725;SDS011;20951;50.818;4.344;2024-02-23T04:07:12;11.98;;;2.85;;
34725;SDS011;20951;50.818;4.344;2024-02-23T04:09:38;11.55;;;2.83;;
34725;SDS011;20951;50.818;4.344;2024-02-23T04:12:04;11.30;;;3.42;;
34725;SDS011;20951;50.818;4.344;2024-02-23T04:14:32;11.48;;;2.92;;
34725;SDS011;20951;50.818;4.344;2024-02-23T04:17:01;8.27;;;3.00;;
34725;SDS011;20951;50.818;4.344;2024-02-23T04:19:29;17.15;;;3.45;;
34725;SDS011;20951;50.818;4.344;2024-02-23T04:21:55;15.32;;;3.63;;
34725;SDS011;20951;50.818;4.344;2024-02-23T04:24:21;13.05;;;3.47;;
34725;SDS011;20951;50.818;4.344;2024-02-23T04:26:47;12.95;;;2.45;;
34725;SDS011;20951;50.818;4.344;2024-02-23T04:29:13;15.15;;;2.60;;
34725;SDS011;20951;50.818;4.344;2024-02-23T04:31:39;12.82;;;3.03;;
34725;SDS011;20951;50.818;4.344;2024-02-23T04:34:04;15.35;;;2.65;;
34725;SDS011;20951;50.818;4.344;2024-02-23T04:36:30;9.93;;;2.20;;
34725;SDS011;20951;50.818;4.344;2024-02-23T04:38:56;15.68;;;2.55;;
34725;SDS011;20951;50.818;4.344;2024-02-23T04:41:22;12.13;;;2.90;;
34725;SDS011;20951;50.818;4.344;2024-02-23T04:43:48;10.23;;;2.50;;
34725;SDS011;20951;50.818;4.344;2024-02-23T04:46:14;11.82;;;3.22;;
34725;SDS011;20951;50.818;4.344;2024-02-23T04:48:40;11.88;;;3.03;;
34725;SDS011;20951;50.818;4.344;2024-02-23T04:51:06;16.50;;;3.75;;
34725;SDS011;20951;50.818;4.344;2024-02-23T04:53:38;13.95;;;3.70;;
34725;SDS011;20951;50.818;4.344;2024-02-23T04:56:04;10.30;;;3.60;;
34725;SDS011;20951;50.818;4.344;2024-02-23T04:58:30;12.82;;;3.35;;
34725;SDS011;20951;50.818;4.344;2024-02-23T05:00:56;12.45;;;3.15;;
34725;SDS011;20951;50.818;4.344;2024-02-23T05:03:22;11.88;;;2.58;;
34725;SDS011;20951;50.818;4.344;2024-02-23T05:05:48;12.45;;;2.55;;
34725;SDS011;20951;50.818;4.344;2024-02-23T05:08:18;9.98;;;2.42;;
34725;SDS011;20951;50.818;4.344;2024-02-23T05:10:49;11.13;;;2.55;;
34725;SDS011;20951;50.818;4.344;2024-02-23T05:13:15;12.70;;;2.38;;
34725;SDS011;20951;50.818;4.344;2024-02-23T05:15:42;10.80;;;1.73;;
34725;SDS011;20951;50.818;4.344;2024-02-23T05:18:07;9.48;;;1.90;;
34725;SDS011;20951;50.818;4.344;2024-02-23T05:20:33;9.00;;;1.92;;
34725;SDS011;20951;50.818;4.344;2024-02-23T05:22:59;7.90;;;1.67;;
34725;SDS011;20951;50.818;4.344;2024-02-23T05:25:25;12.57;;;1.70;;
34725;SDS011;20951;50.818;4.344;2024-02-23T05:27:52;7.43;;;1.67;;
34725;SDS011;20951;50.818;4.344;2024-02-23T05:30:17;8.27;;;1.83;;
34725;SDS011;20951;50.818;4.344;2024-02-23T05:32:43;10.05;;;1.70;;
34725;SDS011;20951;50.818;4.344;2024-02-23T05:35:09;10.23;;;1.70;;
34725;SDS011;20951;50.818;4.344;2024-02-23T05:37:35;11.40;;;1.92;;
34725;SDS011;20951;50.818;4.344;2024-02-23T05:40:02;13.05;;;2.25;;
34725;SDS011;20951;50.818;4.344;2024-02-23T05:42:35;12.98;;;1.92;;
34725;SDS011;20951;50.818;4.344;2024-02-23T05:45:01;10.25;;;1.75;;
34725;SDS011;20951;50.818;4.344;2024-02-23T05:47:29;9.02;;;1.83;;
34725;SDS011;20951;50.818;4.344;2024-02-23T05:49:55;14.07;;;2.15;;
34725;SDS011;20951;50.818;4.344;2024-02-23T05:52:23;12.00;;;1.90;;
34725;SDS011;20951;50.818;4.344;2024-02-23T05:54:48;12.02;;;1.90;;
34725;SDS011;20951;50.818;4.344;2024-02-23T05:57:14;9.98;;;2.00;;
34725;SDS011;20951;50.818;4.344;2024-02-23T05:59:40;11.75;;;2.55;;
34725;SDS011;20951;50.818;4.344;2024-02-23T06:02:06;9.75;;;1.98;;
34725;SDS011;20951;50.818;4.344;2024-02-23T06:04:31;10.57;;;2.10;;
34725;SDS011;20951;50.818;4.344;2024-02-23T06:06:57;8.32;;;1.70;;
34725;SDS011;20951;50.818;4.344;2024-02-23T06:09:23;15.45;;;2.17;;
34725;SDS011;20951;50.818;4.344;2024-02-23T06:11:48;10.65;;;2.10;;
34725;SDS011;20951;50.818;4.344;2024-02-23T06:14:14;10.88;;;2.75;;
34725;SDS011;20951;50.818;4.344;2024-02-23T06:16:41;13.40;;;2.47;;
34725;SDS011;20951;50.818;4.344;2024-02-23T06:19:08;16.25;;;2.38;;
34725;SDS011;20951;50.818;4.344;2024-02-23T06:21:34;10.10;;;2.13;;
34725;SDS011;20951;50.818;4.344;2024-02-23T06:24:00;8.57;;;1.98;;
34725;SDS011;20951;50.818;4.344;2024-02-23T06:26:25;11.27;;;2.40;;
34725;SDS011;20951;50.818;4.344;2024-02-23T06:28:51;11.80;;;1.80;;
34725;SDS011;20951;50.818;4.344;2024-02-23T06:31:17;13.18;;;1.92;;
34725;SDS011;20951;50.818;4.344;2024-02-23T06:33:43;13.00;;;2.28;;
34725;SDS011;20951;50.818;4.344;2024-02-23T06:36:09;10.65;;;2.03;;
34725;SDS011;20951;50.818;4.344;2024-02-23T06:38:35;17.02;;;2.13;;
34725;SDS011;20951;50.818;4.344;2024-02-23T06:41:00;13.23;;;1.80;;
34725;SDS011;20951;50.818;4.344;2024-02-23T06:43:27;13.18;;;2.40;;
34725;SDS011;20951;50.818;4.344;2024-02-23T06:45:52;10.20;;;2.20;;
34725;SDS011;20951;50.818;4.344;2024-02-23T06:48:18;10.63;;;1.92;;
34725;SDS011;20951;50.818;4.344;2024-02-23T06:50:44;9.55;;;1.65;;
34725;SDS011;20951;50.818;4.344;2024-02-23T06:53:10;13.57;;;2.00;;
34725;SDS011;20951;50.818;4.344;2024-02-23T06:55:36;10.90;;;2.08;;
34725;SDS011;20951;50.818;4.344;2024-02-23T06:58:02;13.60;;;2.38;;
34725;SDS011;20951;50.818;4.344;2024-02-23T07:00:30;9.65;;;2.08;;
34725;SDS011;20951;50.818;4.344;2024-02-23T07:02:56;10.05;;;1.70;;
34725;SDS011;20951;50.818;4.344;2024-02-23T07:05:24;10.18;;;1.88;;
34725;SDS011;20951;50.818;4.344;2024-02-23T07:07:50;8.45;;;1.92;;
34725;SDS011;20951;50.818;4.344;2024-02-23T07:10:16;7.25;;;2.03;;
34725;SDS011;20951;50.818;4.344;2024-02-23T07:12:43;11.95;;;2.03;;
34725;SDS011;20951;50.818;4.344;2024-02-23T07:15:09;13.55;;;2.00;;
34725;SDS011;20951;50.818;4.344;2024-02-23T07:17:35;14.82;;;1.98;;
34725;SDS011;20951;50.818;4.344;2024-02-23T07:20:01;14.25;;;2.33;;
34725;SDS011;20951;50.818;4.344;2024-02-23T07:22:31;12.23;;;1.63;;
34725;SDS011;20951;50.818;4.344;2024-02-23T07:24:57;9.60;;;1.95;;
34725;SDS011;20951;50.818;4.344;2024-02-23T07:27:23;13.77;;;1.90;;
34725;SDS011;20951;50.818;4.344;2024-02-23T07:29:49;12.50;;;1.77;;
34725;SDS011;20951;50.818;4.344;2024-02-23T07:32:15;10.88;;;2.35;;
34725;SDS011;20951;50.818;4.344;2024-02-23T07:34:40;15.77;;;2.22;;
34725;SDS011;20951;50.818;4.344;2024-02-23T07:37:06;12.18;;;2.00;;
34725;SDS011;20951;50.818;4.344;2024-02-23T07:39:32;12.48;;;2.63;;
34725;SDS011;20951;50.818;4.344;2024-02-23T07:41:58;12.65;;;1.95;;
34725;SDS011;20951;50.818;4.344;2024-02-23T07:44:23;8.55;;;1.80;;
34725;SDS011;20951;50.818;4.344;2024-02-23T07:46:50;8.20;;;1.88;;
34725;SDS011;20951;50.818;4.344;2024-02-23T07:49:19;11.63;;;1.95;;
34725;SDS011;20951;50.818;4.344;2024-02-23T07:51:45;12.15;;;1.92;;
34725;SDS011;20951;50.818;4.344;2024-02-23T07:54:10;12.00;;;2.10;;
34725;SDS011;20951;50.818;4.344;2024-02-23T07:56:36;13.43;;;2.03;;
34725;SDS011;20951;50.818;4.344;2024-02-23T07:59:02;9.18;;;1.80;;
34725;SDS011;20951;50.818;4.344;2024-02-23T08:01:28;9.80;;;2.00;;
34725;SDS011;20951;50.818;4.344;2024-02-23T08:03:54;11.80;;;1.90;;
34725;SDS011;20951;50.818;4.344;2024-02-23T08:06:20;13.35;;;2.00;;
34725;SDS011;20951;50.818;4.344;2024-02-23T08:08:46;12.27;;;2.45;;
34725;SDS011;20951;50.818;4.344;2024-02-23T08:11:12;14.43;;;2.65;;
34725;SDS011;20951;50.818;4.344;2024-02-23T08:13:38;10.10;;;1.88;;
34725;SDS011;20951;50.818;4.344;2024-02-23T08:16:05;8.82;;;1.95;;
34725;SDS011;20951;50.818;4.344;2024-02-23T08:18:31;11.18;;;2.55;;
34725;SDS011;20951;50.818;4.344;2024-02-23T08:20:57;12.85;;;2.53;;
34725;SDS011;20951;50.818;4.344;2024-02-23T08:23:23;17.58;;;2.78;;
34725;SDS011;20951;50.818;4.344;2024-02-23T08:25:50;8.88;;;2.08;;
34725;SDS011;20951;50.818;4.344;2024-02-23T08:28:16;8.48;;;2.42;;
34725;SDS011;20951;50.818;4.344;2024-02-23T08:30:41;8.13;;;1.77;;
34725;SDS011;20951;50.818;4.344;2024-02-23T08:33:07;10.43;;;1.95;;
34725;SDS011;20951;50.818;4.344;2024-02-23T08:35:35;11.95;;;2.20;;
34725;SDS011;20951;50.818;4.344;2024-02-23T08:38:01;12.38;;;2.53;;
34725;SDS011;20951;50.818;4.344;2024-02-23T08:40:27;8.98;;;2.08;;
34725;SDS011;20951;50.818;4.344;2024-02-23T08:42:52;10.55;;;1.92;;
34725;SDS011;20951;50.818;4.344;2024-02-23T08:45:18;10.60;;;2.38;;
34725;SDS011;20951;50.818;4.344;2024-02-23T08:47:44;15.88;;;2.25;;
34725;SDS011;20951;50.818;4.344;2024-02-23T08:50:10;11.48;;;2.30;;
34725;SDS011;20951;50.818;4.344;2024-02-23T08:52:35;12.10;;;2.13;;
34725;SDS011;20951;50.818;4.344;2024-02-23T08:55:01;10.25;;;2.40;;
34725;SDS011;20951;50.818;4.344;2024-02-23T08:57:27;12.85;;;1.98;;
34725;SDS011;20951;50.818;4.344;2024-02-23T08:59:53;10.00;;;1.92;;
34725;SDS011;20951;50.818;4.344;2024-02-23T09:02:20;11.18;;;2.05;;
34725;SDS011;20951;50.818;4.344;2024-02-23T09:04:46;9.68;;;2.13;;
34725;SDS011;20951;50.818;4.344;2024-02-23T09:07:12;9.13;;;1.83;;
34725;SDS011;20951;50.818;4.344;2024-02-23T09:09:38;9.02;;;2.13;;
34725;SDS011;20951;50.818;4.344;2024-02-23T09:12:03;7.50;;;1.92;;
34725;SDS011;20951;50.818;4.344;2024-02-23T09:14:31;8.93;;;1.90;;
34725;SDS011;20951;50.818;4.344;2024-02-23T09:16:58;11.48;;;2.15;;
34725;SDS011;20951;50.818;4.344;2024-02-23T09:19:24;10.73;;;2.30;;
34725;SDS011;20951;50.818;4.344;2024-02-23T09:21:50;11.23;;;2.28;;
34725;SDS011;20951;50.818;4.344;2024-02-23T09:24:16;11.68;;;2.42;;
34725;SDS011;20951;50.818;4.344;2024-02-23T09:26:41;12.57;;;2.20;;
34725;SDS011;20951;50.818;4.344;2024-02-23T09:29:11;8.20;;;1.63;;
34725;SDS011;20951;50.818;4.344;2024-02-23T09:31:37;14.50;;;2.40;;
34725;SDS011;20951;50.818;4.344;2024-02-23T09:34:02;12.52;;;2.05;;
34725;SDS011;20951;50.818;4.344;2024-02-23T09:36:28;12.25;;;2.35;;
34725;SDS011;20951;50.818;4.344;2024-02-23T09:38:55;10.38;;;2.75;;
34725;SDS011;20951;50.818;4.344;2024-02-23T09:41:22;12.57;;;2.78;;
34725;SDS011;20951;50.818;4.344;2024-02-23T09:43:49;12.65;;;2.88;;
34725;SDS011;20951;50.818;4.344;2024-02-23T09:46:16;7.18;;;2.38;;
34725;SDS011;20951;50.818;4.344;2024-02-23T09:48:43;8.35;;;2.15;;
34725;SDS011;20951;50.818;4.344;2024-02-23T09:51:09;11.43;;;2.88;;
34725;SDS011;20951;50.818;4.344;2024-02-23T09:53:36;10.90;;;2.58;;
34725;SDS011;20951;50.818;4.344;2024-02-23T09:56:03;11.95;;;2.47;;
34725;SDS011;20951;50.818;4.344;2024-02-23T09:58:31;12.93;;;2.60;;
34725;SDS011;20951;50.818;4.344;2024-02-23T10:00:58;12.07;;;2.90;;
34725;SDS011;20951;50.818;4.344;2024-02-23T10:03:25;9.55;;;1.77;;
34725;SDS011;20951;50.818;4.344;2024-02-23T10:05:53;10.75;;;2.55;;
34725;SDS011;20951;50.818;4.344;2024-02-23T10:08:19;7.50;;;2.30;;
34725;SDS011;20951;50.818;4.344;2024-02-23T10:10:45;7.30;;;2.78;;
34725;SDS011;20951;50.818;4.344;2024-02-23T10:13:17;12.88;;;3.15;;
34725;SDS011;20951;50.818;4.344;2024-02-23T10:15:54;12.38;;;3.40;;
34725;SDS011;20951;50.818;4.344;2024-02-23T10:18:20;12.00;;;3.05;;
34725;SDS011;20951;50.818;4.344;2024-02-23T10:20:46;10.90;;;2.83;;
34725;SDS011;20951;50.818;4.344;2024-02-23T10:23:12;13.48;;;4.75;;
34725;SDS011;20951;50.818;4.344;2024-02-23T10:25:38;10.52;;;3.25;;
34725;SDS011;20951;50.818;4.344;2024-02-23T10:28:05;11.10;;;3.10;;
34725;SDS011;20951;50.818;4.344;2024-02-23T10:30:31;10.45;;;2.70;;
34725;SDS011;20951;50.818;4.344;2024-02-23T10:32:58;13.80;;;2.97;;
34725;SDS011;20951;50.818;4.344;2024-02-23T10:35:25;7.85;;;2.78;;
34725;SDS011;20951;50.818;4.344;2024-02-23T10:37:52;7.55;;;2.60;;
34725;SDS011;20951;50.818;4.344;2024-02-23T10:40:20;8.63;;;2.30;;
34725;SDS011;20951;50.818;4.344;2024-02-23T10:42:51;10.90;;;2.28;;
34725;SDS011;20951;50.818;4.344;2024-02-23T10:45:21;8.32;;;2.28;;
34725;SDS011;20951;50.818;4.344;2024-02-23T10:47:48;10.20;;;2.40;;
34725;SDS011;20951;50.818;4.344;2024-02-23T10:50:15;10.07;;;2.40;;
34725;SDS011;20951;50.818;4.344;2024-02-23T10:52:44;8.63;;;2.67;;
34725;SDS011;20951;50.818;4.344;2024-02-23T10:55:10;11.93;;;2.45;;
34725;SDS011;20951;50.818;4.344;2024-02-23T10:57:37;7.57;;;2.58;;
34725;SDS011;20951;50.818;4.344;2024-02-23T11:00:04;17.63;;;4.82;;
34725;SDS011;20951;50.818;4.344;2024-02-23T11:02:53;12.77;;;4.07;;
34725;SDS011;20951;50.818;4.344;2024-02-23T11:05:21;12.40;;;4.40;;
34725;SDS011;20951;50.818;4.344;2024-02-23T11:07:49;12.35;;;2.90;;
34725;SDS011;20951;50.818;4.344;2024-02-23T11:10:16;7.32;;;2.30;;
34725;SDS011;20951;50.818;4.344;2024-02-23T11:12:43;9.77;;;2.30;;
34725;SDS011;20951;50.818;4.344;2024-02-23T11:15:09;12.55;;;2.83;;
34725;SDS011;20951;50.818;4.344;2024-02-23T11:17:50;12.43;;;2.45;;
34725;SDS011;20951;50.818;4.344;2024-02-23T11:20:20;11.38;;;2.67;;
34725;SDS011;20951;50.818;4.344;2024-02-23T11:22:51;11.07;;;2.70;;
34725;SDS011;20951;50.818;4.344;2024-02-23T11:25:19;10.65;;;2.25;;
34725;SDS011;20951;50.818;4.344;2024-02-23T11:27:48;11.73;;;3.35;;
34725;SDS011;20951;50.818;4.344;2024-02-23T11:30:16;9.73;;;3.10;;
34725;SDS011;20951;50.818;4.344;2024-02-23T11:32:43;7.40;;;2.78;;
34725;SDS011;20951;50.818;4.344;2024-02-23T11:35:12;14.75;;;2.50;;
34725;SDS011;20951;50.818;4.344;2024-02-23T11:37:49;12.50;;;2.85;;
34725;SDS011;20951;50.818;4.344;2024-02-23T11:40:25;8.73;;;2.45;;
34725;SDS011;20951;50.818;4.344;2024-02-23T11:42:52;10.32;;;2.70;;
34725;SDS011;20951;50.818;4.344;2024-02-23T11:45:19;10.18;;;2.72;;
34725;SDS011;20951;50.818;4.344;2024-02-23T11:47:45;11.48;;;2.67;;
34725;SDS011;20951;50.818;4.344;2024-02-23T11:50:11;10.23;;;2.47;;
34725;SDS011;20951;50.818;4.344;2024-02-23T11:52:38;9.57;;;2.58;;
34725;SDS011;20951;50.818;4.344;2024-02-23T11:55:04;11.75;;;2.97;;
34725;SDS011;20951;50.818;4.344;2024-02-23T11:57:31;10.90;;;3.25;;
34725;SDS011;20951;50.818;4.344;2024-02-23T12:00:03;8.50;;;3.00;;
34725;SDS011;20951;50.818;4.344;2024-02-23T12:02:32;11.70;;;3.25;;
34725;SDS011;20951;50.818;4.344;2024-02-23T12:05:00;10.40;;;2.80;;
34725;SDS011;20951;50.818;4.344;2024-02-23T12:07:26;9.07;;;2.92;;
34725;SDS011;20951;50.818;4.344;2024-02-23T12:09:54;9.02;;;3.45;;
34725;SDS011;20951;50.818;4.344;2024-02-23T12:12:21;9.45;;;3.28;;
34725;SDS011;20951;50.818;4.344;2024-02-23T12:14:50;9.10;;;3.05;;
34725;SDS011;20951;50.818;4.344;2024-02-23T12:17:16;11.75;;;3.28;;
34725;SDS011;20951;50.818;4.344;2024-02-23T12:19:45;10.77;;;3.50;;
34725;SDS011;20951;50.818;4.344;2024-02-23T12:22:10;8.77;;;3.30;;
34725;SDS011;20951;50.818;4.344;2024-02-23T12:24:40;10.48;;;3.42;;
34725;SDS011;20951;50.818;4.344;2024-02-23T12:27:06;8.90;;;3.47;;
34725;SDS011;20951;50.818;4.344;2024-02-23T12:29:32;10.70;;;4.15;;
34725;SDS011;20951;50.818;4.344;2024-02-23T12:32:07;12.18;;;3.42;;
34725;SDS011;20951;50.818;4.344;2024-02-23T12:34:33;11.80;;;3.25;;
34725;SDS011;20951;50.818;4.344;2024-02-23T12:37:01;9.02;;;2.78;;
34725;SDS011;20951;50.818;4.344;2024-02-23T12:39:29;8.70;;;2.83;;
34725;SDS011;20951;50.818;4.344;2024-02-23T12:41:54;8.52;;;2.70;;
34725;SDS011;20951;50.818;4.344;2024-02-23T12:44:22;9.85;;;2.55;;
34725;SDS011;20951;50.818;4.344;2024-02-23T12:46:47;6.57;;;2.30;;
34725;SDS011;20951;50.818;4.344;2024-02-23T12:49:13;10.20;;;2.75;;
34725;SDS011;20951;50.818;4.344;2024-02-23T12:51:41;9.43;;;2.30;;
34725;SDS011;20951;50.818;4.344;2024-02-23T12:54:07;10.80;;;2.50;;
34725;SDS011;20951;50.818;4.344;2024-02-23T12:56:32;10.45;;;2.17;;
34725;SDS011;20951;50.818;4.344;2024-02-23T12:58:58;9.90;;;2.25;;
34725;SDS011;20951;50.818;4.344;2024-02-23T13:01:24;7.22;;;2.20;;
34725;SDS011;20951;50.818;4.344;2024-02-23T13:03:50;11.35;;;2.22;;
34725;SDS011;20951;50.818;4.344;2024-02-23T13:06:15;7.97;;;2.15;;
34725;SDS011;20951;50.818;4.344;2024-02-23T13:08:44;7.88;;;2.35;;
34725;SDS011;20951;50.818;4.344;2024-02-23T13:11:09;6.15;;;2.05;;
34725;SDS011;20951;50.818;4.344;2024-02-23T13:13:35;7.95;;;2.30;;
34725;SDS011;20951;50.818;4.344;2024-02-23T13:16:01;8.15;;;2.30;;
34725;SDS011;20951;50.818;4.344;2024-02-23T13:18:27;8.75;;;2.42;;
34725;SDS011;20951;50.818;4.344;2024-02-23T13:20:53;6.95;;;1.73;;
34725;SDS011;20951;50.818;4.344;2024-02-23T13:23:19;8.82;;;1.77;;
34725;SDS011;20951;50.818;4.344;2024-02-23T13:25:44;8.40;;;2.20;;
34725;SDS011;20951;50.818;4.344;2024-02-23T13:28:11;8.65;;;2.05;;
34725;SDS011;20951;50.818;4.344;2024-02-23T13:30:37;7.60;;;2.00;;
34725;SDS011;20951;50.818;4.344;2024-02-23T13:33:03;9.07;;;2.30;;
34725;SDS011;20951;50.818;4.344;2024-02-23T13:35:31;7.18;;;1.90;;
34725;SDS011;20951;50.818;4.344;2024-02-23T13:37:56;8.57;;;2.33;;
34725;SDS011;20951;50.818;4.344;2024-02-23T13:40:22;9.63;;;2.40;;
34725;SDS011;20951;50.818;4.344;2024-02-23T13:42:48;7.60;;;2.20;;
34725;SDS011;20951;50.818;4.344;2024-02-23T13:45:18;9.43;;;1.77;;
34725;SDS011;20951;50.818;4.344;2024-02-23T13:47:57;9.68;;;2.35;;
34725;SDS011;20951;50.818;4.344;2024-02-23T13:50:28;9.65;;;2.50;;
34725;SDS011;20951;50.818;4.344;2024-02-23T13:52:54;6.25;;;2.08;;
34725;SDS011;20951;50.818;4.344;2024-02-23T13:55:20;5.28;;;1.67;;
34725;SDS011;20951;50.818;4.344;2024-02-23T13:57:47;5.00;;;1.75;;
34725;SDS011;20951;50.818;4.344;2024-02-23T14:00:14;5.82;;;1.70;;
34725;SDS011;20951;50.818;4.344;2024-02-23T14:02:41;7.18;;;1.90;;
34725;SDS011;20951;50.818;4.344;2024-02-23T14:05:07;6.57;;;2.13;;
34725;SDS011;20951;50.818;4.344;2024-02-23T14:07:33;6.10;;;1.58;;
34725;SDS011;20951;50.818;4.344;2024-02-23T14:09:59;6.90;;;1.58;;
34725;SDS011;20951;50.818;4.344;2024-02-23T14:12:25;6.57;;;1.92;;
34725;SDS011;20951;50.818;4.344;2024-02-23T14:14:51;7.85;;;1.75;;
34725;SDS011;20951;50.818;4.344;2024-02-23T14:17:16;9.10;;;1.75;;
34725;SDS011;20951;50.818;4.344;2024-02-23T14:19:42;6.78;;;1.70;;
34725;SDS011;20951;50.818;4.344;2024-02-23T14:22:08;7.35;;;1.85;;
34725;SDS011;20951;50.818;4.344;2024-02-23T14:24:34;7.15;;;2.30;;
34725;SDS011;20951;50.818;4.344;2024-02-23T14:27:00;7.68;;;2.60;;
34725;SDS011;20951;50.818;4.344;2024-02-23T14:29:26;7.07;;;2.00;;
34725;SDS011;20951;50.818;4.344;2024-02-23T14:31:52;8.10;;;1.80;;
34725;SDS011;20951;50.818;4.344;2024-02-23T14:34:18;9.60;;;2.30;;
34725;SDS011;20951;50.818;4.344;2024-02-23T14:36:45;7.20;;;1.80;;